sensor_id;sensor_type;location;lat;lon;timestamp;P1;durP1;ratioP1;P2;durP2;ratioP2
36747;SDS011;22716;51.556;5.080;2022-10-16T00:02:23;6.27;;;2.90;;
36747;SDS011;22716;51.556;5.080;2022-10-16T00:04:54;6.57;;;2.77;;
36747;SDS011;22716;51.556;5.080;2022-10-16T00:07:23;4.47;;;2.43;;
36747;SDS011;22716;51.556;5.080;2022-10-16T00:09:52;3.30;;;1.90;;
36747;SDS011;22716;51.556;5.080;2022-10-16T00:12:21;3.20;;;2.10;;
36747;SDS011;22716;51.556;5.080;2022-10-16T00:14:51;4.50;;;2.03;;
36747;SDS011;22716;51.556;5.080;2022-10-16T00:17:22;6.87;;;2.70;;
36747;SDS011;22716;51.556;5.080;2022-10-16T00:19:53;4.33;;;2.60;;
36747;SDS011;22716;51.556;5.080;2022-10-16T00:22:22;6.07;;;2.60;;
36747;SDS011;22716;51.556;5.080;2022-10-16T00:25:13;3.43;;;2.10;;
36747;SDS011;22716;51.556;5.080;2022-10-16T00:27:43;5.80;;;2.40;;
36747;SDS011;22716;51.556;5.080;2022-10-16T00:30:12;3.10;;;2.57;;
36747;SDS011;22716;51.556;5.080;2022-10-16T00:32:41;6.80;;;2.80;;
36747;SDS011;22716;51.556;5.080;2022-10-16T00:35:13;5.63;;;2.33;;
36747;SDS011;22716;51.556;5.080;2022-10-16T00:37:42;4.60;;;1.77;;
36747;SDS011;22716;51.556;5.080;2022-10-16T00:40:11;4.17;;;2.40;;
36747;SDS011;22716;51.556;5.080;2022-10-16T00:42:40;2.80;;;1.97;;
36747;SDS011;22716;51.556;5.080;2022-10-16T00:45:10;2.73;;;1.80;;
36747;SDS011;22716;51.556;5.080;2022-10-16T00:47:40;2.63;;;1.93;;
36747;SDS011;22716;51.556;5.080;2022-10-16T00:50:18;5.00;;;2.20;;
36747;SDS011;22716;51.556;5.080;2022-10-16T00:53:02;4.00;;;2.00;;
36747;SDS011;22716;51.556;5.080;2022-10-16T00:55:33;2.63;;;1.90;;
36747;SDS011;22716;51.556;5.080;2022-10-16T00:58:03;3.67;;;1.70;;
36747;SDS011;22716;51.556;5.080;2022-10-16T01:00:32;2.53;;;1.60;;
36747;SDS011;22716;51.556;5.080;2022-10-16T01:03:02;4.40;;;2.00;;
36747;SDS011;22716;51.556;5.080;2022-10-16T01:05:38;2.50;;;2.07;;
36747;SDS011;22716;51.556;5.080;2022-10-16T01:08:16;2.43;;;1.67;;
36747;SDS011;22716;51.556;5.080;2022-10-16T01:11:04;3.27;;;1.63;;
36747;SDS011;22716;51.556;5.080;2022-10-16T01:13:44;3.37;;;2.00;;
36747;SDS011;22716;51.556;5.080;2022-10-16T01:16:26;3.13;;;1.97;;
36747;SDS011;22716;51.556;5.080;2022-10-16T01:19:02;2.03;;;1.57;;
36747;SDS011;22716;51.556;5.080;2022-10-16T01:21:43;6.13;;;1.70;;
36747;SDS011;22716;51.556;5.080;2022-10-16T01:24:17;2.93;;;1.40;;
36747;SDS011;22716;51.556;5.080;2022-10-16T01:27:08;2.07;;;1.17;;
36747;SDS011;22716;51.556;5.080;2022-10-16T01:29:44;2.13;;;1.67;;
36747;SDS011;22716;51.556;5.080;2022-10-16T01:32:24;1.27;;;1.17;;
36747;SDS011;22716;51.556;5.080;2022-10-16T01:35:05;5.57;;;1.98;;
36747;SDS011;22716;51.556;5.080;2022-10-16T01:37:44;1.83;;;1.63;;
36747;SDS011;22716;51.556;5.080;2022-10-16T01:40:36;4.30;;;1.43;;
36747;SDS011;22716;51.556;5.080;2022-10-16T01:43:25;1.63;;;1.40;;
36747;SDS011;22716;51.556;5.080;2022-10-16T01:46:04;3.97;;;1.40;;
36747;SDS011;22716;51.556;5.080;2022-10-16T01:48:34;3.30;;;1.40;;
36747;SDS011;22716;51.556;5.080;2022-10-16T01:51:06;17.43;;;2.47;;
36747;SDS011;22716;51.556;5.080;2022-10-16T01:53:38;3.67;;;1.20;;
36747;SDS011;22716;51.556;5.080;2022-10-16T01:56:09;1.40;;;1.20;;
36747;SDS011;22716;51.556;5.080;2022-10-16T01:58:47;3.27;;;0.90;;
36747;SDS011;22716;51.556;5.080;2022-10-16T02:01:33;3.23;;;1.40;;
36747;SDS011;22716;51.556;5.080;2022-10-16T02:04:08;1.40;;;1.30;;
36747;SDS011;22716;51.556;5.080;2022-10-16T02:06:46;3.77;;;1.70;;
36747;SDS011;22716;51.556;5.080;2022-10-16T02:09:16;1.77;;;1.33;;
36747;SDS011;22716;51.556;5.080;2022-10-16T02:11:45;5.40;;;0.97;;
36747;SDS011;22716;51.556;5.080;2022-10-16T02:14:17;2.67;;;1.03;;
36747;SDS011;22716;51.556;5.080;2022-10-16T02:16:50;2.37;;;1.50;;
36747;SDS011;22716;51.556;5.080;2022-10-16T02:19:19;2.30;;;1.20;;
36747;SDS011;22716;51.556;5.080;2022-10-16T02:21:51;4.50;;;1.60;;
36747;SDS011;22716;51.556;5.080;2022-10-16T02:24:33;2.47;;;1.20;;
36747;SDS011;22716;51.556;5.080;2022-10-16T02:27:10;2.37;;;1.20;;
36747;SDS011;22716;51.556;5.080;2022-10-16T02:29:48;1.53;;;1.33;;
36747;SDS011;22716;51.556;5.080;2022-10-16T02:32:25;3.93;;;1.47;;
36747;SDS011;22716;51.556;5.080;2022-10-16T02:34:58;1.80;;;1.10;;
36747;SDS011;22716;51.556;5.080;2022-10-16T02:37:29;2.33;;;1.13;;
36747;SDS011;22716;51.556;5.080;2022-10-16T02:39:59;2.97;;;1.30;;
36747;SDS011;22716;51.556;5.080;2022-10-16T02:42:33;2.17;;;1.00;;
36747;SDS011;22716;51.556;5.080;2022-10-16T02:45:10;1.90;;;1.20;;
36747;SDS011;22716;51.556;5.080;2022-10-16T02:47:39;3.27;;;1.33;;
36747;SDS011;22716;51.556;5.080;2022-10-16T02:50:08;2.00;;;0.97;;
36747;SDS011;22716;51.556;5.080;2022-10-16T02:52:37;2.13;;;1.30;;
36747;SDS011;22716;51.556;5.080;2022-10-16T02:55:07;1.17;;;1.07;;
36747;SDS011;22716;51.556;5.080;2022-10-16T02:57:48;0.97;;;0.80;;
36747;SDS011;22716;51.556;5.080;2022-10-16T03:00:20;1.33;;;1.10;;
36747;SDS011;22716;51.556;5.080;2022-10-16T03:02:49;1.47;;;0.93;;
36747;SDS011;22716;51.556;5.080;2022-10-16T03:05:18;7.30;;;1.17;;
36747;SDS011;22716;51.556;5.080;2022-10-16T03:07:47;1.17;;;1.07;;
36747;SDS011;22716;51.556;5.080;2022-10-16T03:10:18;2.80;;;1.27;;
36747;SDS011;22716;51.556;5.080;2022-10-16T03:12:48;4.87;;;1.47;;
36747;SDS011;22716;51.556;5.080;2022-10-16T03:15:20;2.97;;;1.27;;
36747;SDS011;22716;51.556;5.080;2022-10-16T03:17:49;3.10;;;1.17;;
36747;SDS011;22716;51.556;5.080;2022-10-16T03:20:22;5.38;;;1.08;;
36747;SDS011;22716;51.556;5.080;2022-10-16T03:22:52;3.47;;;1.40;;
36747;SDS011;22716;51.556;5.080;2022-10-16T03:25:21;3.63;;;1.50;;
36747;SDS011;22716;51.556;5.080;2022-10-16T03:27:51;2.03;;;1.20;;
36747;SDS011;22716;51.556;5.080;2022-10-16T03:30:24;1.63;;;1.30;;
36747;SDS011;22716;51.556;5.080;2022-10-16T03:32:53;5.27;;;1.40;;
36747;SDS011;22716;51.556;5.080;2022-10-16T03:35:22;3.77;;;1.43;;
36747;SDS011;22716;51.556;5.080;2022-10-16T03:37:52;3.53;;;1.57;;
36747;SDS011;22716;51.556;5.080;2022-10-16T03:40:21;3.00;;;0.90;;
36747;SDS011;22716;51.556;5.080;2022-10-16T03:42:51;2.93;;;1.80;;
36747;SDS011;22716;51.556;5.080;2022-10-16T03:45:25;4.63;;;1.47;;
36747;SDS011;22716;51.556;5.080;2022-10-16T03:47:54;3.37;;;1.40;;
36747;SDS011;22716;51.556;5.080;2022-10-16T03:50:23;4.40;;;1.77;;
36747;SDS011;22716;51.556;5.080;2022-10-16T03:52:52;1.73;;;1.17;;
36747;SDS011;22716;51.556;5.080;2022-10-16T03:55:23;2.33;;;1.17;;
36747;SDS011;22716;51.556;5.080;2022-10-16T03:57:52;4.17;;;1.37;;
36747;SDS011;22716;51.556;5.080;2022-10-16T04:00:21;4.13;;;1.43;;
36747;SDS011;22716;51.556;5.080;2022-10-16T04:02:53;1.37;;;1.07;;
36747;SDS011;22716;51.556;5.080;2022-10-16T04:05:22;1.33;;;1.07;;
36747;SDS011;22716;51.556;5.080;2022-10-16T04:07:51;3.17;;;1.10;;
36747;SDS011;22716;51.556;5.080;2022-10-16T04:10:20;3.27;;;1.97;;
36747;SDS011;22716;51.556;5.080;2022-10-16T04:12:49;4.33;;;1.23;;
36747;SDS011;22716;51.556;5.080;2022-10-16T04:15:20;3.77;;;1.50;;
36747;SDS011;22716;51.556;5.080;2022-10-16T04:17:49;1.10;;;0.87;;
36747;SDS011;22716;51.556;5.080;2022-10-16T04:20:21;3.13;;;1.43;;
36747;SDS011;22716;51.556;5.080;2022-10-16T04:22:51;3.40;;;1.60;;
36747;SDS011;22716;51.556;5.080;2022-10-16T04:25:20;3.87;;;1.23;;
36747;SDS011;22716;51.556;5.080;2022-10-16T04:27:49;2.80;;;1.10;;
36747;SDS011;22716;51.556;5.080;2022-10-16T04:30:21;2.80;;;1.37;;
36747;SDS011;22716;51.556;5.080;2022-10-16T04:32:53;3.10;;;1.30;;
36747;SDS011;22716;51.556;5.080;2022-10-16T04:35:22;1.77;;;1.00;;
36747;SDS011;22716;51.556;5.080;2022-10-16T04:37:51;3.83;;;1.50;;
36747;SDS011;22716;51.556;5.080;2022-10-16T04:40:21;4.97;;;1.20;;
36747;SDS011;22716;51.556;5.080;2022-10-16T04:42:49;3.83;;;1.43;;
36747;SDS011;22716;51.556;5.080;2022-10-16T04:45:18;2.20;;;1.40;;
36747;SDS011;22716;51.556;5.080;2022-10-16T04:47:47;2.47;;;1.13;;
36747;SDS011;22716;51.556;5.080;2022-10-16T04:50:19;5.13;;;1.50;;
36747;SDS011;22716;51.556;5.080;2022-10-16T04:52:48;2.17;;;1.23;;
36747;SDS011;22716;51.556;5.080;2022-10-16T04:55:17;3.50;;;1.27;;
36747;SDS011;22716;51.556;5.080;2022-10-16T04:57:45;2.43;;;1.20;;
36747;SDS011;22716;51.556;5.080;2022-10-16T05:00:15;1.57;;;1.17;;
36747;SDS011;22716;51.556;5.080;2022-10-16T05:02:44;5.83;;;1.23;;
36747;SDS011;22716;51.556;5.080;2022-10-16T05:05:13;2.20;;;1.40;;
36747;SDS011;22716;51.556;5.080;2022-10-16T05:07:51;2.57;;;1.13;;
36747;SDS011;22716;51.556;5.080;2022-10-16T05:10:20;3.13;;;1.27;;
36747;SDS011;22716;51.556;5.080;2022-10-16T05:12:49;4.00;;;1.53;;
36747;SDS011;22716;51.556;5.080;2022-10-16T05:15:21;1.97;;;1.67;;
36747;SDS011;22716;51.556;5.080;2022-10-16T05:17:52;3.80;;;1.20;;
36747;SDS011;22716;51.556;5.080;2022-10-16T05:20:22;2.87;;;1.10;;
36747;SDS011;22716;51.556;5.080;2022-10-16T05:22:54;4.27;;;1.33;;
36747;SDS011;22716;51.556;5.080;2022-10-16T05:25:23;4.47;;;1.30;;
36747;SDS011;22716;51.556;5.080;2022-10-16T05:27:52;3.90;;;1.20;;
36747;SDS011;22716;51.556;5.080;2022-10-16T05:30:22;3.17;;;1.37;;
36747;SDS011;22716;51.556;5.080;2022-10-16T05:32:51;2.13;;;1.17;;
36747;SDS011;22716;51.556;5.080;2022-10-16T05:35:20;2.20;;;1.50;;
36747;SDS011;22716;51.556;5.080;2022-10-16T05:37:49;7.40;;;1.23;;
36747;SDS011;22716;51.556;5.080;2022-10-16T05:40:21;2.37;;;1.50;;
36747;SDS011;22716;51.556;5.080;2022-10-16T05:42:49;4.63;;;1.57;;
36747;SDS011;22716;51.556;5.080;2022-10-16T05:45:24;6.03;;;1.67;;
36747;SDS011;22716;51.556;5.080;2022-10-16T05:47:53;5.67;;;1.50;;
36747;SDS011;22716;51.556;5.080;2022-10-16T05:50:22;6.70;;;1.73;;
36747;SDS011;22716;51.556;5.080;2022-10-16T05:52:51;5.17;;;1.30;;
36747;SDS011;22716;51.556;5.080;2022-10-16T05:55:23;4.93;;;1.70;;
36747;SDS011;22716;51.556;5.080;2022-10-16T05:57:53;6.87;;;1.60;;
36747;SDS011;22716;51.556;5.080;2022-10-16T06:00:23;4.53;;;2.07;;
36747;SDS011;22716;51.556;5.080;2022-10-16T06:02:54;3.27;;;1.63;;
36747;SDS011;22716;51.556;5.080;2022-10-16T06:05:23;3.00;;;1.80;;
36747;SDS011;22716;51.556;5.080;2022-10-16T06:08:12;3.73;;;1.50;;
36747;SDS011;22716;51.556;5.080;2022-10-16T06:10:44;4.13;;;2.10;;
36747;SDS011;22716;51.556;5.080;2022-10-16T06:13:14;2.40;;;1.60;;
36747;SDS011;22716;51.556;5.080;2022-10-16T06:15:44;3.23;;;1.70;;
36747;SDS011;22716;51.556;5.080;2022-10-16T06:18:13;3.43;;;1.60;;
36747;SDS011;22716;51.556;5.080;2022-10-16T06:20:42;3.83;;;1.53;;
36747;SDS011;22716;51.556;5.080;2022-10-16T06:23:11;4.00;;;1.77;;
36747;SDS011;22716;51.556;5.080;2022-10-16T06:25:43;4.23;;;1.90;;
36747;SDS011;22716;51.556;5.080;2022-10-16T06:28:13;3.10;;;1.80;;
36747;SDS011;22716;51.556;5.080;2022-10-16T06:30:42;5.23;;;2.10;;
36747;SDS011;22716;51.556;5.080;2022-10-16T06:33:12;5.13;;;1.70;;
36747;SDS011;22716;51.556;5.080;2022-10-16T06:35:41;4.37;;;1.80;;
36747;SDS011;22716;51.556;5.080;2022-10-16T06:38:12;4.03;;;1.93;;
36747;SDS011;22716;51.556;5.080;2022-10-16T06:40:44;3.47;;;2.17;;
36747;SDS011;22716;51.556;5.080;2022-10-16T06:43:14;3.70;;;2.10;;
36747;SDS011;22716;51.556;5.080;2022-10-16T06:45:43;5.60;;;1.93;;
36747;SDS011;22716;51.556;5.080;2022-10-16T06:48:18;5.67;;;1.70;;
36747;SDS011;22716;51.556;5.080;2022-10-16T06:50:55;3.03;;;1.80;;
36747;SDS011;22716;51.556;5.080;2022-10-16T06:53:26;3.43;;;1.90;;
36747;SDS011;22716;51.556;5.080;2022-10-16T06:56:01;3.20;;;2.53;;
36747;SDS011;22716;51.556;5.080;2022-10-16T06:58:46;2.73;;;1.70;;
36747;SDS011;22716;51.556;5.080;2022-10-16T07:01:27;4.23;;;1.93;;
36747;SDS011;22716;51.556;5.080;2022-10-16T07:03:56;7.50;;;4.20;;
36747;SDS011;22716;51.556;5.080;2022-10-16T07:06:26;7.67;;;1.50;;
36747;SDS011;22716;51.556;5.080;2022-10-16T07:09:00;5.10;;;1.57;;
36747;SDS011;22716;51.556;5.080;2022-10-16T07:11:36;5.10;;;2.25;;
36747;SDS011;22716;51.556;5.080;2022-10-16T07:14:11;7.00;;;2.00;;
36747;SDS011;22716;51.556;5.080;2022-10-16T07:16:44;3.80;;;1.67;;
36747;SDS011;22716;51.556;5.080;2022-10-16T07:19:13;4.40;;;1.83;;
36747;SDS011;22716;51.556;5.080;2022-10-16T07:21:43;5.37;;;2.30;;
36747;SDS011;22716;51.556;5.080;2022-10-16T07:24:13;2.33;;;1.47;;
36747;SDS011;22716;51.556;5.080;2022-10-16T07:26:55;5.73;;;2.37;;
36747;SDS011;22716;51.556;5.080;2022-10-16T07:29:24;5.53;;;1.70;;
36747;SDS011;22716;51.556;5.080;2022-10-16T07:31:54;5.90;;;1.80;;
36747;SDS011;22716;51.556;5.080;2022-10-16T07:34:23;6.97;;;2.13;;
36747;SDS011;22716;51.556;5.080;2022-10-16T07:36:53;3.40;;;2.13;;
36747;SDS011;22716;51.556;5.080;2022-10-16T07:39:24;1.90;;;1.70;;
36747;SDS011;22716;51.556;5.080;2022-10-16T07:41:56;4.60;;;1.83;;
36747;SDS011;22716;51.556;5.080;2022-10-16T07:44:27;5.43;;;1.87;;
36747;SDS011;22716;51.556;5.080;2022-10-16T07:46:56;6.27;;;2.23;;
36747;SDS011;22716;51.556;5.080;2022-10-16T07:49:25;6.57;;;1.80;;
36747;SDS011;22716;51.556;5.080;2022-10-16T07:51:55;5.50;;;2.20;;
36747;SDS011;22716;51.556;5.080;2022-10-16T07:54:24;4.00;;;2.40;;
36747;SDS011;22716;51.556;5.080;2022-10-16T07:56:55;7.50;;;3.20;;
36747;SDS011;22716;51.556;5.080;2022-10-16T07:59:25;5.17;;;2.60;;
36747;SDS011;22716;51.556;5.080;2022-10-16T08:01:53;3.23;;;2.20;;
36747;SDS011;22716;51.556;5.080;2022-10-16T08:04:22;4.50;;;2.13;;
36747;SDS011;22716;51.556;5.080;2022-10-16T08:06:51;6.27;;;2.23;;
36747;SDS011;22716;51.556;5.080;2022-10-16T08:09:20;6.63;;;2.00;;
36747;SDS011;22716;51.556;5.080;2022-10-16T08:11:50;4.60;;;2.10;;
36747;SDS011;22716;51.556;5.080;2022-10-16T08:14:21;2.50;;;1.73;;
36747;SDS011;22716;51.556;5.080;2022-10-16T08:16:50;6.07;;;1.97;;
36747;SDS011;22716;51.556;5.080;2022-10-16T08:19:19;3.50;;;1.60;;
36747;SDS011;22716;51.556;5.080;2022-10-16T08:21:48;6.13;;;1.80;;
36747;SDS011;22716;51.556;5.080;2022-10-16T08:24:17;5.20;;;2.90;;
36747;SDS011;22716;51.556;5.080;2022-10-16T08:26:47;7.70;;;3.10;;
36747;SDS011;22716;51.556;5.080;2022-10-16T08:29:16;5.40;;;2.40;;
36747;SDS011;22716;51.556;5.080;2022-10-16T08:31:49;3.93;;;1.60;;
36747;SDS011;22716;51.556;5.080;2022-10-16T08:34:18;8.27;;;2.50;;
36747;SDS011;22716;51.556;5.080;2022-10-16T08:36:47;6.40;;;1.97;;
36747;SDS011;22716;51.556;5.080;2022-10-16T08:39:21;7.65;;;2.42;;
36747;SDS011;22716;51.556;5.080;2022-10-16T08:48:04;4.27;;;2.07;;
36747;SDS011;22716;51.556;5.080;2022-10-16T08:50:45;4.97;;;1.60;;
36747;SDS011;22716;51.556;5.080;2022-10-16T08:53:19;3.87;;;1.80;;
36747;SDS011;22716;51.556;5.080;2022-10-16T08:55:56;3.83;;;1.63;;
36747;SDS011;22716;51.556;5.080;2022-10-16T08:58:28;6.13;;;2.77;;
36747;SDS011;22716;51.556;5.080;2022-10-16T09:00:58;5.73;;;2.20;;
36747;SDS011;22716;51.556;5.080;2022-10-16T09:03:39;8.70;;;1.60;;
36747;SDS011;22716;51.556;5.080;2022-10-16T09:07:04;8.77;;;2.33;;
36747;SDS011;22716;51.556;5.080;2022-10-16T09:12:40;8.07;;;1.92;;
36747;SDS011;22716;51.556;5.080;2022-10-16T09:15:20;6.97;;;1.93;;
36747;SDS011;22716;51.556;5.080;2022-10-16T09:18:02;7.55;;;1.65;;
36747;SDS011;22716;51.556;5.080;2022-10-16T09:20:46;4.70;;;1.57;;
36747;SDS011;22716;51.556;5.080;2022-10-16T09:23:21;3.23;;;1.80;;
36747;SDS011;22716;51.556;5.080;2022-10-16T09:26:21;7.13;;;1.63;;
36747;SDS011;22716;51.556;5.080;2022-10-16T09:28:51;8.13;;;1.67;;
36747;SDS011;22716;51.556;5.080;2022-10-16T09:31:22;7.70;;;2.43;;
36747;SDS011;22716;51.556;5.080;2022-10-16T09:33:52;5.17;;;1.63;;
36747;SDS011;22716;51.556;5.080;2022-10-16T09:36:28;5.63;;;1.50;;
36747;SDS011;22716;51.556;5.080;2022-10-16T09:39:07;5.67;;;2.00;;
36747;SDS011;22716;51.556;5.080;2022-10-16T09:41:39;6.33;;;1.80;;
36747;SDS011;22716;51.556;5.080;2022-10-16T09:44:16;8.07;;;2.60;;
36747;SDS011;22716;51.556;5.080;2022-10-16T09:47:02;13.93;;;2.77;;
36747;SDS011;22716;51.556;5.080;2022-10-16T09:49:31;10.23;;;2.07;;
36747;SDS011;22716;51.556;5.080;2022-10-16T09:52:11;6.20;;;1.43;;
36747;SDS011;22716;51.556;5.080;2022-10-16T09:55:00;7.53;;;1.47;;
36747;SDS011;22716;51.556;5.080;2022-10-16T09:57:31;6.67;;;1.90;;
36747;SDS011;22716;51.556;5.080;2022-10-16T10:00:00;6.03;;;2.40;;
36747;SDS011;22716;51.556;5.080;2022-10-16T10:03:08;10.00;;;2.17;;
36747;SDS011;22716;51.556;5.080;2022-10-16T10:05:38;8.97;;;2.70;;
36747;SDS011;22716;51.556;5.080;2022-10-16T10:08:14;11.53;;;2.00;;
36747;SDS011;22716;51.556;5.080;2022-10-16T10:10:47;8.50;;;1.80;;
36747;SDS011;22716;51.556;5.080;2022-10-16T10:13:20;11.00;;;2.53;;
36747;SDS011;22716;51.556;5.080;2022-10-16T10:16:09;11.80;;;2.10;;
36747;SDS011;22716;51.556;5.080;2022-10-16T10:18:38;11.10;;;2.17;;
36747;SDS011;22716;51.556;5.080;2022-10-16T10:21:28;10.70;;;2.60;;
36747;SDS011;22716;51.556;5.080;2022-10-16T10:24:00;8.40;;;2.20;;
36747;SDS011;22716;51.556;5.080;2022-10-16T10:26:30;13.10;;;2.53;;
36747;SDS011;22716;51.556;5.080;2022-10-16T10:29:04;13.87;;;2.20;;
36747;SDS011;22716;51.556;5.080;2022-10-16T10:31:47;11.67;;;2.97;;
36747;SDS011;22716;51.556;5.080;2022-10-16T10:34:37;14.43;;;2.93;;
36747;SDS011;22716;51.556;5.080;2022-10-16T10:37:24;7.87;;;2.03;;
36747;SDS011;22716;51.556;5.080;2022-10-16T10:40:08;9.50;;;2.33;;
36747;SDS011;22716;51.556;5.080;2022-10-16T10:42:48;10.57;;;2.50;;
36747;SDS011;22716;51.556;5.080;2022-10-16T10:45:33;11.77;;;2.80;;
36747;SDS011;22716;51.556;5.080;2022-10-16T10:48:23;11.53;;;2.67;;
36747;SDS011;22716;51.556;5.080;2022-10-16T10:51:03;17.37;;;4.30;;
36747;SDS011;22716;51.556;5.080;2022-10-16T10:53:50;12.93;;;2.40;;
36747;SDS011;22716;51.556;5.080;2022-10-16T10:56:30;18.95;;;2.35;;
36747;SDS011;22716;51.556;5.080;2022-10-16T10:59:27;12.87;;;2.93;;
36747;SDS011;22716;51.556;5.080;2022-10-16T11:02:33;10.73;;;2.23;;
36747;SDS011;22716;51.556;5.080;2022-10-16T11:05:13;5.77;;;1.90;;
36747;SDS011;22716;51.556;5.080;2022-10-16T11:07:51;7.87;;;2.50;;
36747;SDS011;22716;51.556;5.080;2022-10-16T11:10:24;7.30;;;1.95;;
36747;SDS011;22716;51.556;5.080;2022-10-16T11:13:02;9.80;;;2.30;;
36747;SDS011;22716;51.556;5.080;2022-10-16T11:15:39;8.73;;;2.23;;
36747;SDS011;22716;51.556;5.080;2022-10-16T11:18:18;8.53;;;2.00;;
36747;SDS011;22716;51.556;5.080;2022-10-16T11:20:52;10.25;;;2.22;;
36747;SDS011;22716;51.556;5.080;2022-10-16T11:23:26;13.82;;;3.63;;
36747;SDS011;22716;51.556;5.080;2022-10-16T11:26:01;6.38;;;1.90;;
36747;SDS011;22716;51.556;5.080;2022-10-16T11:28:46;11.87;;;2.43;;
36747;SDS011;22716;51.556;5.080;2022-10-16T11:31:23;11.37;;;2.83;;
36747;SDS011;22716;51.556;5.080;2022-10-16T11:34:01;9.67;;;2.33;;
36747;SDS011;22716;51.556;5.080;2022-10-16T11:36:38;13.30;;;2.83;;
36747;SDS011;22716;51.556;5.080;2022-10-16T11:39:19;7.83;;;2.23;;
36747;SDS011;22716;51.556;5.080;2022-10-16T11:41:53;12.28;;;2.62;;
36747;SDS011;22716;51.556;5.080;2022-10-16T11:44:39;9.43;;;2.47;;
36747;SDS011;22716;51.556;5.080;2022-10-16T11:50:09;9.30;;;2.83;;
36747;SDS011;22716;51.556;5.080;2022-10-16T11:52:52;17.67;;;3.75;;
36747;SDS011;22716;51.556;5.080;2022-10-16T11:55:35;14.70;;;2.80;;
36747;SDS011;22716;51.556;5.080;2022-10-16T11:58:15;7.60;;;2.53;;
36747;SDS011;22716;51.556;5.080;2022-10-16T12:00:56;9.73;;;2.17;;
36747;SDS011;22716;51.556;5.080;2022-10-16T12:03:33;7.77;;;2.23;;
36747;SDS011;22716;51.556;5.080;2022-10-16T12:06:15;9.67;;;2.03;;
36747;SDS011;22716;51.556;5.080;2022-10-16T12:11:30;11.20;;;2.57;;
36747;SDS011;22716;51.556;5.080;2022-10-16T12:14:18;11.87;;;2.87;;
36747;SDS011;22716;51.556;5.080;2022-10-16T12:20:18;13.20;;;2.53;;
36747;SDS011;22716;51.556;5.080;2022-10-16T12:22:53;13.30;;;3.23;;
36747;SDS011;22716;51.556;5.080;2022-10-16T12:25:30;9.80;;;2.53;;
36747;SDS011;22716;51.556;5.080;2022-10-16T12:28:06;11.10;;;2.57;;
36747;SDS011;22716;51.556;5.080;2022-10-16T12:30:52;13.30;;;3.17;;
36747;SDS011;22716;51.556;5.080;2022-10-16T12:33:26;8.27;;;2.03;;
36747;SDS011;22716;51.556;5.080;2022-10-16T12:35:58;7.10;;;2.10;;
36747;SDS011;22716;51.556;5.080;2022-10-16T12:38:32;8.63;;;2.90;;
36747;SDS011;22716;51.556;5.080;2022-10-16T12:41:07;13.90;;;2.07;;
36747;SDS011;22716;51.556;5.080;2022-10-16T12:43:40;10.07;;;2.97;;
36747;SDS011;22716;51.556;5.080;2022-10-16T12:46:23;9.60;;;2.20;;
36747;SDS011;22716;51.556;5.080;2022-10-16T12:54:55;12.20;;;2.57;;
36747;SDS011;22716;51.556;5.080;2022-10-16T12:57:30;9.47;;;2.37;;
36747;SDS011;22716;51.556;5.080;2022-10-16T13:00:18;12.50;;;3.20;;
36747;SDS011;22716;51.556;5.080;2022-10-16T13:02:58;6.10;;;1.83;;
36747;SDS011;22716;51.556;5.080;2022-10-16T13:05:49;6.87;;;1.63;;
36747;SDS011;22716;51.556;5.080;2022-10-16T13:08:34;15.20;;;3.30;;
36747;SDS011;22716;51.556;5.080;2022-10-16T13:11:35;13.07;;;1.50;;
36747;SDS011;22716;51.556;5.080;2022-10-16T13:14:37;5.40;;;1.50;;
36747;SDS011;22716;51.556;5.080;2022-10-16T13:17:23;6.47;;;1.80;;
36747;SDS011;22716;51.556;5.080;2022-10-16T13:20:03;6.50;;;1.50;;
36747;SDS011;22716;51.556;5.080;2022-10-16T13:22:49;9.47;;;1.83;;
36747;SDS011;22716;51.556;5.080;2022-10-16T13:25:30;9.60;;;2.10;;
36747;SDS011;22716;51.556;5.080;2022-10-16T13:28:12;4.73;;;1.70;;
36747;SDS011;22716;51.556;5.080;2022-10-16T13:30:42;8.57;;;1.93;;
36747;SDS011;22716;51.556;5.080;2022-10-16T13:33:27;6.80;;;2.13;;
36747;SDS011;22716;51.556;5.080;2022-10-16T13:36:02;4.33;;;1.70;;
36747;SDS011;22716;51.556;5.080;2022-10-16T13:38:36;5.70;;;1.90;;
36747;SDS011;22716;51.556;5.080;2022-10-16T13:41:05;5.53;;;1.93;;
36747;SDS011;22716;51.556;5.080;2022-10-16T13:43:43;10.10;;;1.93;;
36747;SDS011;22716;51.556;5.080;2022-10-16T13:46:19;14.23;;;2.87;;
36747;SDS011;22716;51.556;5.080;2022-10-16T13:48:56;6.33;;;2.40;;
36747;SDS011;22716;51.556;5.080;2022-10-16T13:51:25;15.23;;;2.47;;
36747;SDS011;22716;51.556;5.080;2022-10-16T13:53:58;9.47;;;2.00;;
36747;SDS011;22716;51.556;5.080;2022-10-16T13:56:28;6.93;;;2.37;;
36747;SDS011;22716;51.556;5.080;2022-10-16T13:58:59;9.80;;;2.30;;
36747;SDS011;22716;51.556;5.080;2022-10-16T14:01:29;5.53;;;1.70;;
36747;SDS011;22716;51.556;5.080;2022-10-16T14:04:02;7.50;;;1.90;;
36747;SDS011;22716;51.556;5.080;2022-10-16T14:06:33;6.27;;;1.73;;
36747;SDS011;22716;51.556;5.080;2022-10-16T14:09:07;7.30;;;2.03;;
36747;SDS011;22716;51.556;5.080;2022-10-16T14:11:48;16.30;;;2.05;;
36747;SDS011;22716;51.556;5.080;2022-10-16T14:14:19;5.70;;;1.93;;
36747;SDS011;22716;51.556;5.080;2022-10-16T14:16:49;4.77;;;1.60;;
36747;SDS011;22716;51.556;5.080;2022-10-16T14:19:20;6.80;;;1.43;;
36747;SDS011;22716;51.556;5.080;2022-10-16T14:21:56;6.43;;;2.50;;
36747;SDS011;22716;51.556;5.080;2022-10-16T14:24:33;6.37;;;1.23;;
36747;SDS011;22716;51.556;5.080;2022-10-16T14:30:12;5.00;;;1.60;;
36747;SDS011;22716;51.556;5.080;2022-10-16T14:32:52;7.93;;;1.83;;
36747;SDS011;22716;51.556;5.080;2022-10-16T14:35:25;9.57;;;2.20;;
36747;SDS011;22716;51.556;5.080;2022-10-16T14:37:57;11.17;;;2.27;;
36747;SDS011;22716;51.556;5.080;2022-10-16T14:40:35;6.93;;;2.00;;
36747;SDS011;22716;51.556;5.080;2022-10-16T14:43:05;6.55;;;1.88;;
36747;SDS011;22716;51.556;5.080;2022-10-16T14:45:34;5.80;;;2.20;;
36747;SDS011;22716;51.556;5.080;2022-10-16T14:48:13;5.10;;;2.15;;
36747;SDS011;22716;51.556;5.080;2022-10-16T14:50:48;5.07;;;1.63;;
36747;SDS011;22716;51.556;5.080;2022-10-16T14:53:18;6.13;;;2.07;;
36747;SDS011;22716;51.556;5.080;2022-10-16T14:55:50;7.60;;;1.80;;
36747;SDS011;22716;51.556;5.080;2022-10-16T14:58:26;7.93;;;2.13;;
36747;SDS011;22716;51.556;5.080;2022-10-16T15:00:55;5.97;;;2.33;;
36747;SDS011;22716;51.556;5.080;2022-10-16T15:03:28;6.40;;;2.13;;
36747;SDS011;22716;51.556;5.080;2022-10-16T15:05:57;3.30;;;1.20;;
36747;SDS011;22716;51.556;5.080;2022-10-16T15:08:26;6.30;;;1.87;;
36747;SDS011;22716;51.556;5.080;2022-10-16T15:10:57;6.87;;;2.10;;
36747;SDS011;22716;51.556;5.080;2022-10-16T15:13:26;12.17;;;2.67;;
36747;SDS011;22716;51.556;5.080;2022-10-16T15:15:56;3.57;;;1.50;;
36747;SDS011;22716;51.556;5.080;2022-10-16T15:18:26;4.63;;;1.60;;
36747;SDS011;22716;51.556;5.080;2022-10-16T15:20:55;6.40;;;1.93;;
36747;SDS011;22716;51.556;5.080;2022-10-16T15:23:24;2.67;;;1.33;;
36747;SDS011;22716;51.556;5.080;2022-10-16T15:25:54;7.50;;;1.93;;
36747;SDS011;22716;51.556;5.080;2022-10-16T15:28:26;3.63;;;1.47;;
36747;SDS011;22716;51.556;5.080;2022-10-16T15:30:55;6.37;;;1.40;;
36747;SDS011;22716;51.556;5.080;2022-10-16T15:33:27;7.17;;;1.97;;
36747;SDS011;22716;51.556;5.080;2022-10-16T15:36:02;5.17;;;1.77;;
36747;SDS011;22716;51.556;5.080;2022-10-16T15:38:32;9.00;;;3.40;;
36747;SDS011;22716;51.556;5.080;2022-10-16T15:41:04;4.47;;;1.43;;
36747;SDS011;22716;51.556;5.080;2022-10-16T15:43:33;5.47;;;1.47;;
36747;SDS011;22716;51.556;5.080;2022-10-16T15:46:11;5.53;;;2.57;;
36747;SDS011;22716;51.556;5.080;2022-10-16T15:48:49;10.17;;;2.73;;
36747;SDS011;22716;51.556;5.080;2022-10-16T15:51:19;6.27;;;1.83;;
36747;SDS011;22716;51.556;5.080;2022-10-16T15:53:48;7.30;;;1.70;;
36747;SDS011;22716;51.556;5.080;2022-10-16T15:56:23;8.23;;;2.47;;